< Typhoon 200426 2004 Season Typhoon 200428 >
Typhoon 200427 (NANMADOL)
General InformationTrack Information on Google MapsDetailed Wind InformationAccess Analytics MapList of All Images || NewsDisaster Info.WeblogTrackbackTyphoon FrontResourceGoogle EarthGE AnimationAtom FeedGeoJSON
Detalied Best Track (Time Zone = UTC)
Year Month Day Hour Lat. Long. Pressure (hPa) Wind (kt) Class Image Chart
2004 11 28 00 5.7 153.7 1006 0 2 Image Chart
2004 11 28 06 5.6 152.3 1002 0 2 Image Chart
2004 11 28 12 6.0 150.3 1000 0 2 Image Chart
2004 11 28 18 6.2 149.1 1000 0 2 Image Chart
2004 11 29 00 6.4 147.7 992 35 3 Image Chart
2004 11 29 06 6.8 146.0 992 35 3 Image Chart
2004 11 29 12 7.1 144.0 990 40 3 Image Chart
2004 11 29 18 7.7 143.1 985 45 3 Image Chart
2004 11 30 00 8.6 141.0 980 50 4 Image Chart
2004 11 30 06 9.5 139.0 975 60 4 Image Chart
2004 11 30 12 10.0 137.1 960 75 5 Image Chart
2004 11 30 18 10.7 135.2 955 75 5 Image Chart
2004 12 1 00 11.7 132.8 940 85 5 Image Chart
2004 12 1 06 12.5 130.5 935 90 5 Image Chart
2004 12 1 12 13.1 128.7 935 90 5 Image Chart
2004 12 1 18 13.7 126.8 935 90 5 Image Chart
2004 12 2 00 14.3 125.0 945 80 5 Image Chart
2004 12 2 06 15.0 123.4 945 80 5 Image Chart
2004 12 2 12 16.0 122.1 955 75 5 Image Chart
2004 12 2 18 17.4 120.1 965 70 5 Image Chart
2004 12 3 00 18.1 119.2 970 60 4 Image Chart
2004 12 3 06 19.2 118.7 980 55 4 Image Chart
2004 12 3 12 20.2 118.2 985 50 4 Image Chart
2004 12 3 18 22.0 119.3 985 50 4 Image Chart
2004 12 4 00 22.6 120.7 992 45 3 Image Chart
2004 12 4 06 23.2 122.6 1000 0 6 Image Chart
Japan Meteorological Agency Best Track Data | Correction Date : 2006-01-18
< Typhoon 200426 2004 Season Typhoon 200428 >

Help